Time;durP1;ratioP1;P1;durP2;ratioP2;P2;SDS_P1;SDS_P2;PMS_P1;PMS_P2;Temp;Humidity;BMP_temperature;BMP_pressure;BME280_temperature;BME280_humidity;BME280_pressure;Samples;Min_cycle;Max_cycle;Signal;HPM_P1;HPM_P2
2022/07/19 00:01:17;;;;;;;11.27;9.13;;;18.00;99.90;;;;;;5038959;28;20461;-75
2022/07/19 00:04:06;;;;;;;10.10;9.20;;;17.90;99.90;;;;;;5037575;28;20996;-75
2022/07/19 00:06:55;;;;;;;9.40;8.60;;;17.90;99.90;;;;;;5030687;28;20518;-75
2022/07/19 00:09:43;;;;;;;10.17;9.30;;;17.90;99.90;;;;;;5054311;28;20498;-75
2022/07/19 00:12:32;;;;;;;10.77;9.77;;;17.80;99.90;;;;;;5050621;28;21053;-75
2022/07/19 00:15:20;;;;;;;9.80;8.90;;;17.80;99.90;;;;;;5048624;28;20446;-75
2022/07/19 00:18:10;;;;;;;10.03;8.87;;;17.70;99.90;;;;;;5057186;28;20469;-75
2022/07/19 00:20:58;;;;;;;9.97;9.00;;;17.70;99.90;;;;;;5054207;28;20687;-75
2022/07/19 00:23:46;;;;;;;9.80;8.80;;;17.70;99.90;;;;;;5048811;28;21045;-75
2022/07/19 00:26:35;;;;;;;10.20;9.30;;;17.70;99.90;;;;;;5050435;28;20471;-75
2022/07/19 00:29:23;;;;;;;9.70;8.80;;;17.60;99.90;;;;;;5057835;28;20478;-75
2022/07/19 00:32:11;;;;;;;9.97;8.97;;;17.60;99.90;;;;;;5047601;28;20441;-75
2022/07/19 00:35:01;;;;;;;9.20;8.30;;;17.50;99.90;;;;;;5049812;28;20482;-74
2022/07/19 00:37:49;;;;;;;10.00;8.87;;;17.50;99.90;;;;;;5047892;28;20515;-75
2022/07/19 00:40:38;;;;;;;9.77;8.67;;;17.40;99.90;;;;;;5052078;28;20486;-75
2022/07/19 00:43:26;;;;;;;9.30;8.43;;;17.40;99.90;;;;;;5046892;28;20549;-75
2022/07/19 00:46:15;;;;;;;9.20;8.40;;;17.40;99.90;;;;;;5046962;28;21021;-75
2022/07/19 00:49:05;;;;;;;9.60;8.67;;;17.40;99.90;;;;;;5058250;28;20599;-75
2022/07/19 00:51:56;;;;;;;9.50;8.63;;;17.30;99.90;;;;;;5046586;28;23662;-76
2022/07/19 00:54:46;;;;;;;9.57;8.67;;;17.30;99.90;;;;;;5051188;28;20977;-75
2022/07/19 00:57:37;;;;;;;9.33;8.40;;;17.30;99.90;;;;;;5053906;28;20495;-75
2022/07/19 01:00:27;;;;;;;9.40;8.40;;;17.20;99.90;;;;;;5050374;28;20458;-75
2022/07/19 01:03:16;;;;;;;9.00;8.30;;;17.20;99.90;;;;;;5047910;28;20871;-75
2022/07/19 01:06:04;;;;;;;10.90;8.40;;;17.20;99.90;;;;;;5054223;28;20458;-74
2022/07/19 01:08:54;;;;;;;10.37;9.37;;;17.20;99.90;;;;;;5038491;28;20474;-75
2022/07/19 01:11:42;;;;;;;9.27;8.30;;;17.10;99.90;;;;;;5046703;28;21019;-75
2022/07/19 01:14:31;;;;;;;9.40;8.60;;;17.10;99.90;;;;;;5050219;28;21005;-76
2022/07/19 01:17:19;;;;;;;9.67;8.60;;;17.00;99.90;;;;;;5041364;28;20454;-75
2022/07/19 01:20:09;;;;;;;9.67;8.70;;;17.00;99.90;;;;;;5048091;28;20835;-75
2022/07/19 01:22:59;;;;;;;10.20;9.00;;;17.00;99.90;;;;;;5048681;28;20553;-74
2022/07/19 01:25:49;;;;;;;10.23;8.70;;;17.00;99.90;;;;;;5046269;28;20446;-74
2022/07/19 01:28:38;;;;;;;10.07;9.07;;;16.90;99.90;;;;;;5052845;28;20502;-74
2022/07/19 01:31:26;;;;;;;10.17;9.17;;;16.90;99.90;;;;;;5050842;28;20594;-74
2022/07/19 01:34:14;;;;;;;10.10;8.90;;;16.90;99.90;;;;;;5051054;28;20471;-74
2022/07/19 01:37:03;;;;;;;11.03;10.03;;;16.80;99.90;;;;;;5050382;28;20451;-74
2022/07/19 01:39:56;;;;;;;9.97;9.00;;;16.80;99.90;;;;;;5051453;28;20805;-75
2022/07/19 01:42:45;;;;;;;9.77;8.77;;;16.80;99.90;;;;;;5046745;28;20479;-74
2022/07/19 01:45:33;;;;;;;9.90;8.97;;;16.70;99.90;;;;;;5050711;28;21019;-75
2022/07/19 01:48:22;;;;;;;10.47;9.47;;;16.70;99.90;;;;;;5048987;28;20547;-74
2022/07/19 01:51:10;;;;;;;9.70;8.77;;;16.70;99.90;;;;;;5047208;28;20442;-74
2022/07/19 01:53:58;;;;;;;10.57;9.47;;;16.70;99.90;;;;;;5041493;28;21074;-74
2022/07/19 01:56:48;;;;;;;10.13;9.13;;;16.60;99.90;;;;;;5052155;28;20862;-74
2022/07/19 01:59:37;;;;;;;9.87;8.97;;;16.60;99.90;;;;;;5051039;28;20553;-75
2022/07/19 02:02:25;;;;;;;10.07;8.73;;;16.60;99.90;;;;;;5048766;28;20545;-74
2022/07/19 02:05:14;;;;;;;11.27;8.33;;;16.50;99.90;;;;;;5045652;28;20455;-75
2022/07/19 02:08:06;;;;;;;10.40;8.60;;;16.50;99.90;;;;;;5052068;28;20439;-74
2022/07/19 02:10:55;;;;;;;10.10;9.10;;;16.50;99.90;;;;;;5051159;28;20505;-75
2022/07/19 02:13:44;;;;;;;10.80;9.80;;;16.40;99.90;;;;;;5048761;28;20965;-75
2022/07/19 02:16:33;;;;;;;9.77;8.87;;;16.40;99.90;;;;;;5053690;28;20461;-75
2022/07/19 02:19:21;;;;;;;10.10;9.07;;;16.40;99.90;;;;;;5050084;28;20457;-74
2022/07/19 02:22:09;;;;;;;9.67;8.77;;;16.30;99.90;;;;;;5048680;28;20453;-75
2022/07/19 02:24:58;;;;;;;10.40;9.50;;;16.30;99.90;;;;;;5049816;28;20573;-75
2022/07/19 02:27:46;;;;;;;9.90;8.90;;;16.30;99.90;;;;;;5054517;28;20535;-75
2022/07/19 02:30:35;;;;;;;9.10;8.30;;;16.20;99.90;;;;;;5051265;28;20483;-73
2022/07/19 02:33:24;;;;;;;10.70;9.67;;;16.20;99.90;;;;;;5050140;28;20508;-73
2022/07/19 02:36:12;;;;;;;10.47;9.47;;;16.20;99.90;;;;;;5048414;28;20596;-73
2022/07/19 02:39:00;;;;;;;9.13;8.33;;;16.20;99.90;;;;;;5048808;28;20840;-74
2022/07/19 02:41:48;;;;;;;10.93;9.83;;;16.10;99.90;;;;;;5050928;28;20810;-73
2022/07/19 02:44:37;;;;;;;10.13;9.13;;;16.10;99.90;;;;;;5045764;28;20573;-73
2022/07/19 02:47:26;;;;;;;11.33;10.07;;;16.10;99.90;;;;;;5041088;28;20489;-73
2022/07/19 02:50:14;;;;;;;10.20;9.20;;;16.10;99.90;;;;;;5057317;28;20524;-74
2022/07/19 02:53:03;;;;;;;10.20;9.30;;;16.00;99.90;;;;;;5046493;28;20587;-73
2022/07/19 02:55:51;;;;;;;11.27;10.27;;;16.00;99.90;;;;;;5040502;28;21025;-73
2022/07/19 02:58:39;;;;;;;10.37;9.43;;;16.00;99.90;;;;;;5056535;28;20949;-73
2022/07/19 03:01:29;;;;;;;10.20;9.30;;;15.90;99.90;;;;;;5052125;28;20536;-73
2022/07/19 03:04:19;;;;;;;10.80;9.70;;;15.90;99.90;;;;;;5040077;28;20483;-73
2022/07/19 03:07:07;;;;;;;10.43;9.53;;;15.90;99.90;;;;;;5049025;28;20439;-75
2022/07/19 03:09:56;;;;;;;10.67;9.67;;;15.90;99.90;;;;;;5044889;28;21135;-73
2022/07/19 03:12:44;;;;;;;10.67;9.57;;;15.80;99.90;;;;;;5053229;28;20553;-73
2022/07/19 03:15:32;;;;;;;9.83;8.83;;;15.80;99.90;;;;;;5043760;28;20835;-73
2022/07/19 03:18:20;;;;;;;10.80;9.73;;;15.80;99.90;;;;;;5050385;28;20537;-73
2022/07/19 03:21:10;;;;;;;11.07;9.97;;;15.80;99.90;;;;;;5040181;28;20530;-73
2022/07/19 03:23:58;;;;;;;10.10;9.20;;;15.80;99.90;;;;;;5050247;28;20497;-73
2022/07/19 03:26:46;;;;;;;10.60;9.60;;;15.70;99.90;;;;;;5046450;28;20998;-73
2022/07/19 03:29:35;;;;;;;9.83;8.83;;;15.70;99.90;;;;;;5052810;28;20478;-73
2022/07/19 03:32:23;;;;;;;9.60;8.67;;;15.70;99.90;;;;;;5051073;28;20482;-73
2022/07/19 03:35:11;;;;;;;10.30;9.30;;;15.70;99.90;;;;;;5053383;28;20537;-73
2022/07/19 03:38:01;;;;;;;10.40;9.50;;;15.70;99.90;;;;;;5052562;28;20507;-73
2022/07/19 03:40:50;;;;;;;9.97;9.00;;;15.70;99.90;;;;;;5047727;28;20457;-73
2022/07/19 03:43:38;;;;;;;10.03;9.13;;;15.60;99.90;;;;;;5049556;28;20555;-73
2022/07/19 03:46:28;;;;;;;9.50;8.70;;;15.60;99.90;;;;;;5043101;28;20833;-75
2022/07/19 03:49:16;;;;;;;10.30;9.20;;;15.60;99.90;;;;;;5049972;28;20476;-75
2022/07/19 03:52:05;;;;;;;9.87;8.97;;;15.60;99.90;;;;;;5042394;28;20488;-73
2022/07/19 03:54:55;;;;;;;10.63;9.60;;;15.60;99.90;;;;;;5049944;28;20446;-73
2022/07/19 03:57:43;;;;;;;10.20;9.30;;;15.60;99.90;;;;;;5061913;28;20480;-73
2022/07/19 04:00:33;;;;;;;9.60;8.70;;;15.60;99.90;;;;;;5058831;28;20508;-74
2022/07/19 04:03:22;;;;;;;10.17;9.23;;;15.60;99.90;;;;;;5059619;28;20474;-73
2022/07/19 04:06:12;;;;;;;9.17;8.37;;;15.60;99.90;;;;;;5061667;28;20500;-74
2022/07/19 04:09:00;;;;;;;10.17;9.27;;;15.60;99.90;;;;;;5061652;28;20466;-73
2022/07/19 04:11:50;;;;;;;9.60;8.70;;;15.60;99.90;;;;;;5061710;28;20488;-76
2022/07/19 04:14:38;;;;;;;9.97;9.17;;;15.60;99.90;;;;;;5060547;28;20478;-73
2022/07/19 04:17:26;;;;;;;9.50;8.60;;;15.70;99.90;;;;;;5048144;28;20573;-74
2022/07/19 04:20:14;;;;;;;10.17;9.17;;;15.70;99.90;;;;;;5051230;28;21010;-73
2022/07/19 04:23:03;;;;;;;8.97;8.00;;;15.70;99.90;;;;;;5051774;28;20564;-73
2022/07/19 04:25:51;;;;;;;10.30;9.33;;;15.70;99.90;;;;;;5051856;28;20451;-73
2022/07/19 04:28:41;;;;;;;9.07;8.23;;;15.70;99.90;;;;;;5040460;28;20448;-73
2022/07/19 04:31:29;;;;;;;10.30;9.20;;;15.70;99.90;;;;;;5045530;28;20570;-73
2022/07/19 04:34:18;;;;;;;10.30;9.20;;;15.80;99.90;;;;;;5051607;28;20473;-73
2022/07/19 04:37:06;;;;;;;9.20;8.40;;;15.80;99.90;;;;;;5050079;28;20569;-73
2022/07/19 04:39:54;;;;;;;11.20;9.17;;;15.80;99.90;;;;;;5049956;28;20966;-73
2022/07/19 04:42:43;;;;;;;9.90;9.00;;;15.90;99.90;;;;;;5059805;28;20529;-73
2022/07/19 04:45:32;;;;;;;10.13;9.23;;;15.90;99.90;;;;;;5038668;28;20461;-73
2022/07/19 04:48:20;;;;;;;10.53;9.30;;;15.90;99.90;;;;;;5055167;28;20442;-74
2022/07/19 04:51:09;;;;;;;10.00;9.07;;;16.00;99.90;;;;;;5050984;28;20475;-73
2022/07/19 04:53:57;;;;;;;9.43;8.50;;;16.00;99.90;;;;;;5052127;28;20487;-75
2022/07/19 04:56:45;;;;;;;9.50;8.63;;;16.10;99.90;;;;;;5049591;28;20541;-74
2022/07/19 04:59:33;;;;;;;9.33;8.53;;;16.10;99.90;;;;;;5052780;28;20889;-73
2022/07/19 05:02:26;;;;;;;10.60;9.60;;;16.20;99.90;;;;;;5044347;28;20492;-74
2022/07/19 05:05:14;;;;;;;9.80;8.87;;;16.20;99.90;;;;;;5054947;28;21120;-73
2022/07/19 05:08:03;;;;;;;9.33;8.50;;;16.30;99.90;;;;;;5049399;28;20530;-74
2022/07/19 05:10:51;;;;;;;8.80;8.00;;;16.40;99.90;;;;;;5049871;28;20545;-74
2022/07/19 05:13:39;;;;;;;9.97;9.07;;;16.40;99.90;;;;;;5056986;28;20608;-74
2022/07/19 05:16:28;;;;;;;9.60;8.63;;;16.50;99.90;;;;;;5048683;28;20460;-74
2022/07/19 05:19:18;;;;;;;11.23;10.00;;;16.60;99.90;;;;;;5047004;28;21011;-74
2022/07/19 05:22:06;;;;;;;10.73;9.63;;;16.70;99.90;;;;;;5048197;28;20508;-74
2022/07/19 05:24:55;;;;;;;10.30;9.30;;;16.80;99.90;;;;;;5049358;28;20446;-74
2022/07/19 05:27:44;;;;;;;10.73;9.63;;;16.90;99.90;;;;;;5051084;28;20467;-74
2022/07/19 05:30:32;;;;;;;14.00;9.93;;;16.90;99.90;;;;;;5049665;28;20489;-74
2022/07/19 05:33:21;;;;;;;10.63;9.63;;;17.00;99.90;;;;;;5037795;28;21251;-74
2022/07/19 05:36:10;;;;;;;11.00;10.00;;;17.10;99.90;;;;;;5050105;28;20470;-74
2022/07/19 05:38:59;;;;;;;10.80;9.80;;;17.10;99.90;;;;;;5053102;28;20989;-74
2022/07/19 05:41:47;;;;;;;13.50;10.90;;;17.20;99.90;;;;;;5049745;28;20537;-74
2022/07/19 05:44:35;;;;;;;10.70;9.60;;;17.30;99.90;;;;;;5050887;28;20471;-74
2022/07/19 05:47:23;;;;;;;11.10;10.00;;;17.40;99.90;;;;;;5054153;28;20588;-74
2022/07/19 05:50:12;;;;;;;9.87;8.93;;;17.50;99.90;;;;;;5047292;28;20820;-74
2022/07/19 05:53:01;;;;;;;9.60;8.70;;;17.60;99.90;;;;;;5061873;28;20517;-74
2022/07/19 05:55:49;;;;;;;8.53;7.70;;;17.70;99.90;;;;;;5047324;22;20577;-72
2022/07/19 05:58:38;;;;;;;9.50;8.50;;;17.80;99.90;;;;;;5023438;28;20460;-72
2022/07/19 06:01:26;;;;;;;12.57;8.80;;;17.90;99.90;;;;;;5018453;28;20855;-72
2022/07/19 06:04:15;;;;;;;10.57;8.20;;;18.10;99.90;;;;;;5005216;28;20452;-73
2022/07/19 06:07:03;;;;;;;11.10;8.20;;;18.20;99.90;;;;;;4988760;28;20507;-73
2022/07/19 06:09:53;;;;;;;9.70;8.73;;;18.30;99.90;;;;;;5000137;28;20456;-72
2022/07/19 06:12:41;;;;;;;9.30;7.87;;;18.40;99.90;;;;;;5000195;28;20927;-72
2022/07/19 06:15:29;;;;;;;8.07;7.37;;;18.50;99.90;;;;;;5002364;28;20599;-73
2022/07/19 06:18:18;;;;;;;9.20;8.30;;;18.60;99.90;;;;;;5007824;28;20579;-72
2022/07/19 06:21:09;;;;;;;9.33;8.43;;;18.80;99.90;;;;;;4998093;28;20693;-72
2022/07/19 06:23:57;;;;;;;8.57;7.77;;;18.90;99.90;;;;;;4996255;28;20579;-73
2022/07/19 06:26:47;;;;;;;8.07;7.27;;;19.00;99.90;;;;;;5008072;28;20492;-73
2022/07/19 06:29:35;;;;;;;8.80;7.87;;;19.10;99.90;;;;;;5005998;28;20457;-72
2022/07/19 06:32:23;;;;;;;9.30;8.40;;;19.30;99.90;;;;;;5004703;28;20876;-73
2022/07/19 06:35:12;;;;;;;9.40;8.00;;;19.50;99.90;;;;;;5004373;28;20815;-73
2022/07/19 06:38:00;;;;;;;11.87;7.97;;;19.60;99.90;;;;;;4999089;28;20463;-73
2022/07/19 06:40:48;;;;;;;8.10;7.40;;;19.70;99.90;;;;;;4997302;28;21177;-73
2022/07/19 06:43:39;;;;;;;8.53;7.40;;;19.80;99.90;;;;;;4997815;28;20608;-72
2022/07/19 06:46:27;;;;;;;8.13;7.40;;;20.00;99.90;;;;;;4996884;28;20589;-73
2022/07/19 06:49:16;;;;;;;8.17;7.37;;;20.10;99.90;;;;;;5005415;28;20440;-72
2022/07/19 06:52:04;;;;;;;8.07;7.23;;;20.20;99.90;;;;;;5004410;28;20720;-73
2022/07/19 06:55:00;;;;;;;8.00;7.07;;;20.40;99.90;;;;;;4999662;28;20504;-73
2022/07/19 06:57:49;;;;;;;8.07;6.90;;;20.50;99.90;;;;;;4997973;28;20574;-73
2022/07/19 07:00:38;;;;;;;7.83;7.03;;;20.70;99.90;;;;;;4995835;28;20561;-73
2022/07/19 07:03:27;;;;;;;6.83;6.23;;;20.80;99.90;;;;;;5004550;28;20953;-73
2022/07/19 07:06:15;;;;;;;7.07;6.37;;;20.90;99.90;;;;;;5009364;28;20988;-73
2022/07/19 07:09:04;;;;;;;6.57;5.97;;;21.00;99.90;;;;;;5003435;28;20543;-73
2022/07/19 07:11:52;;;;;;;7.73;6.07;;;21.00;99.90;;;;;;5004572;28;20862;-73
2022/07/19 07:14:40;;;;;;;8.73;6.50;;;21.20;99.90;;;;;;5000540;28;20521;-74
2022/07/19 07:17:30;;;;;;;7.23;6.53;;;21.30;99.90;;;;;;5003024;28;20518;-73
2022/07/19 07:20:18;;;;;;;7.27;6.60;;;21.40;99.90;;;;;;5003813;28;20484;-73
2022/07/19 07:23:06;;;;;;;9.33;6.30;;;21.50;99.90;;;;;;5002892;28;20457;-74
2022/07/19 07:25:54;;;;;;;7.13;6.43;;;21.60;99.90;;;;;;4999774;28;20585;-74
2022/07/19 07:28:43;;;;;;;11.60;7.47;;;21.80;99.90;;;;;;4999738;28;20964;-74
2022/07/19 07:31:31;;;;;;;7.07;5.90;;;21.90;99.90;;;;;;5002726;28;20993;-74
2022/07/19 07:34:21;;;;;;;8.40;6.47;;;22.00;99.90;;;;;;4998996;28;20479;-74
2022/07/19 07:37:10;;;;;;;8.07;6.90;;;22.10;99.90;;;;;;5009299;28;20457;-76
2022/07/19 07:39:58;;;;;;;6.23;5.47;;;22.20;99.90;;;;;;5006819;28;20495;-73
2022/07/19 07:42:46;;;;;;;6.87;6.27;;;22.30;99.90;;;;;;5006942;28;21014;-73
2022/07/19 07:45:34;;;;;;;6.43;5.83;;;22.40;99.90;;;;;;5009446;28;20523;-73
2022/07/19 07:48:23;;;;;;;6.43;5.83;;;22.50;99.90;;;;;;5004995;28;20550;-73
2022/07/19 07:51:12;;;;;;;6.27;5.67;;;22.70;99.90;;;;;;5011372;28;20579;-73
2022/07/19 07:54:21;;;;;;;7.30;5.97;;;22.70;99.90;;;;;;5010054;28;20994;-73
2022/07/19 07:57:09;;;;;;;6.90;6.20;;;22.90;99.90;;;;;;5008256;28;20467;-74
2022/07/19 07:59:58;;;;;;;8.00;6.50;;;23.00;99.90;;;;;;5006695;28;20631;-74
2022/07/19 08:02:49;;;;;;;6.10;5.60;;;23.10;99.90;;;;;;5007046;28;20523;-74
2022/07/19 08:05:39;;;;;;;6.23;5.63;;;23.20;99.90;;;;;;5025484;28;20478;-73
2022/07/19 08:08:28;;;;;;;7.27;6.57;;;23.30;99.90;;;;;;5009871;28;20511;-73
2022/07/19 08:11:17;;;;;;;5.97;5.43;;;23.40;99.90;;;;;;5004678;28;20456;-73
2022/07/19 08:14:05;;;;;;;5.80;5.30;;;23.50;99.90;;;;;;5013748;28;20448;-73
2022/07/19 08:16:54;;;;;;;6.63;5.30;;;23.60;99.90;;;;;;5016348;28;20453;-73
2022/07/19 08:19:42;;;;;;;7.70;5.97;;;23.80;99.90;;;;;;5015427;28;20463;-73
2022/07/19 08:22:30;;;;;;;6.40;5.73;;;23.90;99.90;;;;;;5011575;28;20519;-73
2022/07/19 08:25:20;;;;;;;6.30;5.53;;;24.10;99.90;;;;;;5024633;28;20601;-73
2022/07/19 08:28:08;;;;;;;6.40;5.40;;;24.20;99.90;;;;;;5012869;28;20593;-73
2022/07/19 08:30:56;;;;;;;5.60;5.00;;;24.30;99.90;;;;;;5005712;28;20530;-74
2022/07/19 08:33:59;;;;;;;5.73;5.10;;;24.30;99.90;;;;;;5002343;28;20452;-73
2022/07/19 08:36:47;;;;;;;5.50;5.00;;;24.50;99.90;;;;;;5004887;28;20511;-73
2022/07/19 08:39:35;;;;;;;5.77;5.30;;;24.60;99.90;;;;;;5014217;28;20503;-74
2022/07/19 08:42:26;;;;;;;5.23;4.73;;;24.60;99.90;;;;;;5010303;28;20540;-73
2022/07/19 08:45:23;;;;;;;5.87;5.47;;;24.80;99.90;;;;;;5009064;28;20464;-73
2022/07/19 08:48:13;;;;;;;6.53;5.30;;;24.90;99.90;;;;;;5004446;28;20536;-73
2022/07/19 08:51:02;;;;;;;6.10;5.40;;;24.90;99.90;;;;;;5007488;28;20452;-73
2022/07/19 08:53:51;;;;;;;6.20;5.60;;;25.00;99.90;;;;;;5015455;28;20480;-73
2022/07/19 08:59:46;;;;;;;6.40;5.50;;;25.20;99.90;;;;;;5001012;28;20456;-73
2022/07/19 09:02:37;;;;;;;6.90;4.93;;;25.30;99.90;;;;;;5011181;28;21193;-73
2022/07/19 09:05:26;;;;;;;5.40;5.00;;;25.40;99.90;;;;;;5012006;28;20472;-73
2022/07/19 09:08:22;;;;;;;6.57;5.33;;;25.50;99.90;;;;;;5008016;28;20454;-74
2022/07/19 09:11:16;;;;;;;5.93;5.43;;;25.50;99.90;;;;;;5009080;28;20504;-73
2022/07/19 09:14:06;;;;;;;4.77;4.37;;;25.60;99.90;;;;;;5004788;28;20485;-73
2022/07/19 09:17:01;;;;;;;5.23;4.73;;;25.70;99.90;;;;;;5013253;28;20456;-74
2022/07/19 09:19:52;;;;;;;5.47;4.47;;;25.80;99.90;;;;;;5008448;28;20472;-73
2022/07/19 09:22:55;;;;;;;5.30;4.90;;;25.90;99.90;;;;;;5003855;28;20511;-73
2022/07/19 09:25:48;;;;;;;6.53;5.73;;;26.00;99.90;;;;;;5017272;28;20468;-73
2022/07/19 09:28:37;;;;;;;7.80;5.50;;;26.10;99.90;;;;;;5005727;28;20595;-74
2022/07/19 09:31:25;;;;;;;6.03;5.43;;;26.20;99.90;;;;;;5007774;28;20960;-74
2022/07/19 09:34:17;;;;;;;6.13;5.57;;;26.20;99.90;;;;;;5013566;28;20472;-73
2022/07/19 09:37:17;;;;;;;7.17;5.30;;;26.30;99.90;;;;;;5008724;28;20477;-73
2022/07/19 09:40:08;;;;;;;5.87;5.30;;;26.40;99.90;;;;;;5009668;28;20489;-74
2022/07/19 09:42:57;;;;;;;5.90;5.30;;;26.50;99.90;;;;;;5009527;28;20871;-75
2022/07/19 09:45:46;;;;;;;5.23;4.73;;;26.60;99.90;;;;;;5004365;28;20833;-74
2022/07/19 09:48:44;;;;;;;5.10;4.60;;;26.70;99.90;;;;;;5006606;28;20535;-74
2022/07/19 09:51:36;;;;;;;5.47;5.00;;;26.70;99.90;;;;;;5007631;28;20445;-74
2022/07/19 09:54:25;;;;;;;5.83;4.43;;;26.80;99.90;;;;;;5012098;28;20471;-73
2022/07/19 09:57:16;;;;;;;5.40;5.00;;;26.90;99.90;;;;;;5006364;28;20602;-74
2022/07/19 10:00:06;;;;;;;4.63;4.20;;;27.00;99.90;;;;;;5017731;28;20459;-74
2022/07/19 10:02:57;;;;;;;5.17;4.67;;;27.10;99.90;;;;;;5008288;28;20890;-74
2022/07/19 10:05:46;;;;;;;5.80;4.20;;;27.10;99.90;;;;;;5009526;28;20485;-74
2022/07/19 10:08:36;;;;;;;4.50;4.10;;;27.20;99.90;;;;;;5001017;28;20564;-73
2022/07/19 10:11:26;;;;;;;5.23;4.33;;;27.20;99.90;;;;;;5002407;28;20969;-74
2022/07/19 10:14:14;;;;;;;6.00;4.50;;;27.20;99.90;;;;;;4996617;28;20499;-74
2022/07/19 10:17:11;;;;;;;4.57;4.17;;;27.30;99.90;;;;;;5009824;28;20506;-74
2022/07/19 10:20:01;;;;;;;5.30;4.77;;;27.30;99.90;;;;;;5016584;28;20448;-74
2022/07/19 10:22:50;;;;;;;6.00;4.13;;;27.40;99.90;;;;;;5011925;28;20436;-74
2022/07/19 10:25:45;;;;;;;4.93;4.23;;;27.50;99.90;;;;;;5003354;28;20907;-74
2022/07/19 10:28:35;;;;;;;4.73;4.37;;;27.50;99.90;;;;;;5008050;28;20464;-74
2022/07/19 10:31:44;;;;;;;6.23;4.10;;;27.60;99.90;;;;;;5008014;28;20449;-75
2022/07/19 10:34:34;;;;;;;4.33;4.00;;;27.70;99.90;;;;;;5002549;28;20567;-74
2022/07/19 10:37:40;;;;;;;5.43;4.40;;;27.80;99.90;;;;;;5006889;28;20565;-75
2022/07/19 10:40:42;;;;;;;3.77;3.47;;;27.80;99.90;;;;;;5007585;28;20995;-75
2022/07/19 10:43:30;;;;;;;4.17;3.87;;;27.90;99.90;;;;;;5007893;28;20449;-74
2022/07/19 10:46:30;;;;;;;3.87;3.57;;;27.90;99.90;;;;;;5003727;28;20559;-74
2022/07/19 10:49:43;;;;;;;4.40;4.10;;;28.00;99.90;;;;;;4998423;28;20536;-74
2022/07/19 10:52:36;;;;;;;3.53;3.33;;;28.00;99.90;;;;;;5007393;28;21036;-74
2022/07/19 10:55:31;;;;;;;3.70;3.40;;;28.10;99.90;;;;;;5007061;28;20971;-74
2022/07/19 10:58:20;;;;;;;3.30;3.00;;;28.30;99.90;;;;;;5002193;28;20859;-74
2022/07/19 11:01:17;;;;;;;2.47;2.30;;;28.30;99.90;;;;;;5009208;28;20457;-75
2022/07/19 11:04:29;;;;;;;2.63;2.43;;;28.40;98.90;;;;;;5006344;28;20441;-74
2022/07/19 11:07:20;;;;;;;2.63;2.43;;;28.50;98.50;;;;;;5009596;28;20594;-74
2022/07/19 11:10:09;;;;;;;3.10;2.90;;;28.60;99.50;;;;;;5008191;28;20456;-74
2022/07/19 11:12:58;;;;;;;3.17;2.97;;;28.70;98.00;;;;;;5005858;28;20440;-74
2022/07/19 11:15:56;;;;;;;8.10;3.37;;;28.70;98.00;;;;;;5007598;28;21047;-74
2022/07/19 11:18:45;;;;;;;3.60;3.30;;;28.80;99.50;;;;;;5005881;28;20459;-74
2022/07/19 11:21:36;;;;;;;3.17;2.90;;;28.90;97.90;;;;;;5010166;28;20463;-74
2022/07/19 11:24:25;;;;;;;3.23;3.03;;;29.00;99.90;;;;;;5008359;28;20511;-74
2022/07/19 11:27:13;;;;;;;2.60;2.50;;;29.10;97.30;;;;;;5019792;28;20539;-74
2022/07/19 11:30:03;;;;;;;4.63;3.50;;;29.20;96.00;;;;;;5022156;28;20471;-74
2022/07/19 11:32:55;;;;;;;3.50;3.30;;;29.30;96.10;;;;;;5009331;28;21003;-74
2022/07/19 11:35:53;;;;;;;3.30;3.00;;;29.50;94.90;;;;;;5009155;28;20518;-74
2022/07/19 11:38:43;;;;;;;3.33;3.03;;;29.50;97.60;;;;;;5015300;28;20448;-74
2022/07/19 11:41:34;;;;;;;3.63;3.33;;;29.60;96.30;;;;;;5008297;28;20973;-74
2022/07/19 11:44:22;;;;;;;4.27;3.37;;;29.70;97.70;;;;;;5002387;28;20543;-74
2022/07/19 11:47:10;;;;;;;3.30;3.10;;;29.90;93.40;;;;;;5012480;28;20926;-74
2022/07/19 11:50:05;;;;;;;3.97;3.57;;;30.00;95.40;;;;;;5006849;28;20539;-74
2022/07/19 11:52:56;;;;;;;2.97;2.77;;;30.00;93.60;;;;;;5003268;28;20480;-75
2022/07/19 11:55:44;;;;;;;3.73;3.43;;;30.20;93.90;;;;;;5002014;28;20523;-74
2022/07/19 11:58:33;;;;;;;3.87;3.00;;;30.20;95.70;;;;;;5000936;28;20976;-74
2022/07/19 12:01:26;;;;;;;3.27;2.97;;;30.30;95.90;;;;;;5005840;28;20972;-74
2022/07/19 12:04:15;;;;;;;3.50;3.20;;;30.50;95.80;;;;;;5006100;28;20837;-74
2022/07/19 12:07:05;;;;;;;3.30;3.00;;;30.50;94.20;;;;;;5007413;28;20467;-74
2022/07/19 12:09:53;;;;;;;2.80;2.60;;;30.70;90.60;;;;;;5006927;28;20448;-75
2022/07/19 12:12:42;;;;;;;3.30;3.00;;;30.80;90.50;;;;;;5006642;28;20488;-75
2022/07/19 12:15:47;;;;;;;2.30;2.20;;;30.90;92.40;;;;;;5000965;28;20512;-73
2022/07/19 12:18:54;;;;;;;2.97;2.77;;;31.10;90.80;;;;;;5004375;28;20498;-73
2022/07/19 12:21:43;;;;;;;3.10;2.90;;;31.20;90.80;;;;;;5003632;28;20453;-74
2022/07/19 12:24:45;;;;;;;2.43;2.30;;;31.30;92.00;;;;;;5001044;28;20599;-74
2022/07/19 12:27:34;;;;;;;2.70;2.50;;;31.50;86.50;;;;;;5008173;28;20499;-74
2022/07/19 12:30:22;;;;;;;2.90;2.70;;;31.60;84.90;;;;;;5015256;28;20452;-74
2022/07/19 12:33:12;;;;;;;2.93;2.73;;;31.70;83.40;;;;;;5011379;28;20543;-74
2022/07/19 12:36:01;;;;;;;2.67;2.47;;;31.80;85.90;;;;;;5005108;28;20523;-74
2022/07/19 12:38:49;;;;;;;4.20;2.73;;;32.00;86.10;;;;;;5010571;28;20484;-74
2022/07/19 12:41:39;;;;;;;2.60;2.40;;;32.00;85.10;;;;;;5005057;28;20583;-74
2022/07/19 12:44:27;;;;;;;3.20;2.73;;;32.20;81.90;;;;;;5007307;28;20539;-75
2022/07/19 12:47:15;;;;;;;3.87;3.00;;;32.30;82.60;;;;;;5009452;28;20499;-74
2022/07/19 12:50:25;;;;;;;3.07;2.83;;;32.40;83.00;;;;;;5013045;28;20886;-75
2022/07/19 12:53:16;;;;;;;3.23;2.93;;;32.60;86.30;;;;;;5005647;28;20880;-75
2022/07/19 12:56:07;;;;;;;3.00;2.70;;;32.70;89.80;;;;;;5001420;28;20858;-75
2022/07/19 13:02:02;;;;;;;3.30;3.10;;;32.90;82.70;;;;;;5009662;28;20598;-75
2022/07/19 13:04:51;;;;;;;3.30;3.00;;;33.10;81.60;;;;;;5007022;28;20568;-75
2022/07/19 13:07:39;;;;;;;3.20;3.00;;;33.20;81.50;;;;;;4997188;28;20809;-75
2022/07/19 13:10:28;;;;;;;4.30;3.23;;;33.30;80.50;;;;;;5016964;28;20983;-75
2022/07/19 13:13:16;;;;;;;3.90;3.00;;;33.40;82.00;;;;;;5000151;28;20460;-75
2022/07/19 13:16:07;;;;;;;3.30;3.10;;;33.50;79.10;;;;;;5010138;28;20488;-73
2022/07/19 13:18:56;;;;;;;2.90;2.70;;;33.60;79.80;;;;;;5013064;28;20456;-74
2022/07/19 13:21:44;;;;;;;3.00;2.80;;;33.80;78.80;;;;;;5012908;28;20519;-73
2022/07/19 13:24:32;;;;;;;3.53;3.00;;;33.90;76.60;;;;;;5013218;28;20990;-74
2022/07/19 13:27:40;;;;;;;3.40;3.10;;;34.00;74.50;;;;;;5020634;28;20456;-74
2022/07/19 13:30:30;;;;;;;3.30;3.00;;;34.10;72.10;;;;;;5009789;28;20542;-73
2022/07/19 13:33:22;;;;;;;2.67;2.47;;;34.20;74.30;;;;;;5013397;28;20563;-74
2022/07/19 13:36:10;;;;;;;2.67;2.47;;;34.30;70.60;;;;;;5022727;28;20471;-74
2022/07/19 13:38:59;;;;;;;2.87;2.67;;;34.40;71.90;;;;;;5016826;28;21153;-75
2022/07/19 13:41:47;;;;;;;3.03;2.83;;;34.50;69.60;;;;;;5007808;28;20542;-73
2022/07/19 13:44:38;;;;;;;5.90;3.20;;;34.70;71.80;;;;;;5015210;28;20863;-74
2022/07/19 13:47:26;;;;;;;4.43;3.20;;;34.80;70.90;;;;;;5006513;28;20464;-73
2022/07/19 13:50:16;;;;;;;3.30;3.10;;;34.90;67.40;;;;;;5022650;28;20455;-74
2022/07/19 13:53:04;;;;;;;4.93;3.37;;;35.10;72.90;;;;;;5009316;28;20882;-75
2022/07/19 13:55:53;;;;;;;4.30;3.50;;;35.20;69.10;;;;;;5017444;28;20919;-74
2022/07/19 13:58:41;;;;;;;3.10;2.90;;;35.40;66.80;;;;;;5004799;28;20453;-74
2022/07/19 14:01:31;;;;;;;4.00;3.30;;;35.50;65.90;;;;;;5017891;28;20479;-74
2022/07/19 14:04:35;;;;;;;3.40;3.20;;;35.50;64.80;;;;;;5015569;28;20475;-74
2022/07/19 14:07:24;;;;;;;3.53;3.23;;;35.60;66.90;;;;;;5008769;28;20511;-74
2022/07/19 14:10:13;;;;;;;3.53;3.23;;;35.70;64.20;;;;;;5008422;28;20943;-75
2022/07/19 14:13:01;;;;;;;3.40;3.10;;;35.70;64.90;;;;;;5008617;28;20530;-74
2022/07/19 14:16:09;;;;;;;3.63;3.30;;;35.90;67.30;;;;;;5008746;28;20463;-73
2022/07/19 14:18:57;;;;;;;3.80;3.40;;;36.00;64.50;;;;;;5011210;28;20440;-73
2022/07/19 14:21:46;;;;;;;3.20;3.00;;;36.20;65.70;;;;;;5011415;28;20459;-74
2022/07/19 14:24:36;;;;;;;3.50;3.20;;;36.30;63.30;;;;;;5013228;28;20525;-73
2022/07/19 14:27:24;;;;;;;3.17;2.87;;;36.30;65.70;;;;;;5012706;28;20440;-74
2022/07/19 14:30:13;;;;;;;3.30;3.00;;;36.40;63.20;;;;;;5002924;28;20467;-74
2022/07/19 14:33:02;;;;;;;3.33;3.13;;;36.60;65.70;;;;;;5015653;28;20982;-74
2022/07/19 14:35:50;;;;;;;3.20;3.00;;;36.70;63.50;;;;;;5003868;28;20495;-74
2022/07/19 14:38:38;;;;;;;3.47;3.10;;;36.80;61.60;;;;;;5010327;28;20452;-74
2022/07/19 14:41:28;;;;;;;3.20;2.90;;;36.90;62.40;;;;;;5007423;28;20500;-74
2022/07/19 14:44:16;;;;;;;3.00;2.80;;;37.10;62.50;;;;;;5009355;28;20982;-74
2022/07/19 14:47:06;;;;;;;3.10;2.70;;;37.00;60.50;;;;;;5007688;28;21002;-74